sensor_id;sensor_type;location;lat;lon;timestamp;P1;durP1;ratioP1;P2;durP2;ratioP2
69213;SDS011;56325;47.030;18.518;2022-09-12T00:01:14;2.05;;;1.95;;
69213;SDS011;56325;47.030;18.518;2022-09-12T00:03:51;4.00;;;1.60;;
69213;SDS011;56325;47.030;18.518;2022-09-12T00:06:27;1.62;;;1.52;;
69213;SDS011;56325;47.030;18.518;2022-09-12T00:09:03;1.80;;;1.70;;
69213;SDS011;56325;47.030;18.518;2022-09-12T00:11:41;1.90;;;1.60;;
69213;SDS011;56325;47.030;18.518;2022-09-12T00:14:17;1.85;;;1.85;;
69213;SDS011;56325;47.030;18.518;2022-09-12T00:16:52;4.47;;;1.67;;
69213;SDS011;56325;47.030;18.518;2022-09-12T00:19:29;2.00;;;1.90;;
69213;SDS011;56325;47.030;18.518;2022-09-12T00:22:04;1.90;;;1.90;;
69213;SDS011;56325;47.030;18.518;2022-09-12T00:24:38;2.72;;;1.92;;
69213;SDS011;56325;47.030;18.518;2022-09-12T00:27:14;4.50;;;3.47;;
69213;SDS011;56325;47.030;18.518;2022-09-12T00:29:48;1.92;;;1.92;;
69213;SDS011;56325;47.030;18.518;2022-09-12T00:32:22;2.20;;;2.10;;
69213;SDS011;56325;47.030;18.518;2022-09-12T00:34:56;2.00;;;2.00;;
69213;SDS011;56325;47.030;18.518;2022-09-12T00:37:31;2.55;;;2.35;;
69213;SDS011;56325;47.030;18.518;2022-09-12T00:40:05;3.40;;;2.20;;
69213;SDS011;56325;47.030;18.518;2022-09-12T00:42:41;2.93;;;2.20;;
69213;SDS011;56325;47.030;18.518;2022-09-12T00:45:19;2.83;;;2.28;;
69213;SDS011;56325;47.030;18.518;2022-09-12T00:47:57;3.40;;;2.30;;
69213;SDS011;56325;47.030;18.518;2022-09-12T00:50:36;2.27;;;2.17;;
69213;SDS011;56325;47.030;18.518;2022-09-12T00:53:10;2.75;;;2.55;;
69213;SDS011;56325;47.030;18.518;2022-09-12T00:55:45;4.35;;;2.30;;
69213;SDS011;56325;47.030;18.518;2022-09-12T00:58:24;2.63;;;2.53;;
69213;SDS011;56325;47.030;18.518;2022-09-12T01:01:02;2.45;;;2.33;;
69213;SDS011;56325;47.030;18.518;2022-09-12T01:03:37;2.85;;;2.65;;
69213;SDS011;56325;47.030;18.518;2022-09-12T01:06:13;2.67;;;2.50;;
69213;SDS011;56325;47.030;18.518;2022-09-12T01:08:50;4.80;;;2.50;;
69213;SDS011;56325;47.030;18.518;2022-09-12T01:11:26;4.97;;;2.30;;
69213;SDS011;56325;47.030;18.518;2022-09-12T01:14:05;3.03;;;2.90;;
69213;SDS011;56325;47.030;18.518;2022-09-12T01:16:40;3.00;;;2.87;;
69213;SDS011;56325;47.030;18.518;2022-09-12T01:19:24;3.33;;;3.13;;
69213;SDS011;56325;47.030;18.518;2022-09-12T01:22:18;3.20;;;2.90;;
69213;SDS011;56325;47.030;18.518;2022-09-12T01:25:07;3.70;;;3.20;;
69213;SDS011;56325;47.030;18.518;2022-09-12T01:27:48;3.50;;;3.30;;
69213;SDS011;56325;47.030;18.518;2022-09-12T01:30:46;3.50;;;3.30;;
69213;SDS011;56325;47.030;18.518;2022-09-12T01:33:26;4.30;;;3.13;;
69213;SDS011;56325;47.030;18.518;2022-09-12T01:36:33;3.53;;;3.23;;
69213;SDS011;56325;47.030;18.518;2022-09-12T01:39:13;11.00;;;3.63;;
69213;SDS011;56325;47.030;18.518;2022-09-12T01:41:55;5.57;;;3.67;;
69213;SDS011;56325;47.030;18.518;2022-09-12T01:44:45;3.97;;;3.77;;
69213;SDS011;56325;47.030;18.518;2022-09-12T01:47:26;4.20;;;3.90;;
69213;SDS011;56325;47.030;18.518;2022-09-12T01:50:07;3.87;;;3.67;;
69213;SDS011;56325;47.030;18.518;2022-09-12T01:52:47;4.40;;;3.85;;
69213;SDS011;56325;47.030;18.518;2022-09-12T01:55:26;5.40;;;3.83;;
69213;SDS011;56325;47.030;18.518;2022-09-12T01:58:05;4.13;;;3.83;;
69213;SDS011;56325;47.030;18.518;2022-09-12T02:00:44;4.25;;;3.85;;
69213;SDS011;56325;47.030;18.518;2022-09-12T02:03:25;4.62;;;4.15;;
69213;SDS011;56325;47.030;18.518;2022-09-12T02:06:04;5.43;;;4.50;;
69213;SDS011;56325;47.030;18.518;2022-09-12T02:08:46;4.33;;;3.97;;
69213;SDS011;56325;47.030;18.518;2022-09-12T02:11:24;4.83;;;4.23;;
69213;SDS011;56325;47.030;18.518;2022-09-12T02:13:59;10.30;;;4.70;;
69213;SDS011;56325;47.030;18.518;2022-09-12T02:16:39;4.57;;;4.28;;
69213;SDS011;56325;47.030;18.518;2022-09-12T02:19:19;5.10;;;4.70;;
69213;SDS011;56325;47.030;18.518;2022-09-12T02:21:57;6.87;;;4.73;;
69213;SDS011;56325;47.030;18.518;2022-09-12T02:24:35;4.93;;;4.63;;
69213;SDS011;56325;47.030;18.518;2022-09-12T02:27:13;4.93;;;4.57;;
69213;SDS011;56325;47.030;18.518;2022-09-12T02:29:49;4.93;;;4.60;;
69213;SDS011;56325;47.030;18.518;2022-09-12T02:32:27;4.80;;;4.40;;
69213;SDS011;56325;47.030;18.518;2022-09-12T02:35:09;5.53;;;5.03;;
69213;SDS011;56325;47.030;18.518;2022-09-12T02:37:52;5.43;;;5.03;;
69213;SDS011;56325;47.030;18.518;2022-09-12T02:40:32;6.73;;;4.97;;
69213;SDS011;56325;47.030;18.518;2022-09-12T02:43:08;7.20;;;5.30;;
69213;SDS011;56325;47.030;18.518;2022-09-12T02:45:42;6.13;;;4.63;;
69213;SDS011;56325;47.030;18.518;2022-09-12T02:48:18;6.57;;;4.93;;
69213;SDS011;56325;47.030;18.518;2022-09-12T02:50:57;5.63;;;5.33;;
69213;SDS011;56325;47.030;18.518;2022-09-12T02:53:31;6.53;;;5.23;;
69213;SDS011;56325;47.030;18.518;2022-09-12T02:56:07;8.13;;;5.27;;
69213;SDS011;56325;47.030;18.518;2022-09-12T02:58:46;5.57;;;5.18;;
69213;SDS011;56325;47.030;18.518;2022-09-12T03:01:25;6.30;;;5.70;;
69213;SDS011;56325;47.030;18.518;2022-09-12T03:04:14;7.23;;;5.53;;
69213;SDS011;56325;47.030;18.518;2022-09-12T03:07:08;6.30;;;5.70;;
69213;SDS011;56325;47.030;18.518;2022-09-12T03:09:46;7.73;;;6.10;;
69213;SDS011;56325;47.030;18.518;2022-09-12T03:12:36;6.50;;;5.90;;
69213;SDS011;56325;47.030;18.518;2022-09-12T03:15:21;6.33;;;5.80;;
69213;SDS011;56325;47.030;18.518;2022-09-12T03:18:05;7.13;;;6.03;;
69213;SDS011;56325;47.030;18.518;2022-09-12T03:20:52;7.97;;;6.20;;
69213;SDS011;56325;47.030;18.518;2022-09-12T03:23:37;6.70;;;6.10;;
69213;SDS011;56325;47.030;18.518;2022-09-12T03:26:19;6.70;;;6.20;;
69213;SDS011;56325;47.030;18.518;2022-09-12T03:29:00;7.07;;;6.57;;
69213;SDS011;56325;47.030;18.518;2022-09-12T03:31:36;7.60;;;6.80;;
69213;SDS011;56325;47.030;18.518;2022-09-12T03:34:11;7.37;;;6.63;;
69213;SDS011;56325;47.030;18.518;2022-09-12T03:36:45;7.47;;;5.90;;
69213;SDS011;56325;47.030;18.518;2022-09-12T03:39:21;8.27;;;6.70;;
69213;SDS011;56325;47.030;18.518;2022-09-12T03:41:57;7.00;;;6.47;;
69213;SDS011;56325;47.030;18.518;2022-09-12T03:44:32;11.97;;;10.93;;
69213;SDS011;56325;47.030;18.518;2022-09-12T03:47:06;8.00;;;7.20;;
69213;SDS011;56325;47.030;18.518;2022-09-12T03:49:43;8.17;;;7.37;;
69213;SDS011;56325;47.030;18.518;2022-09-12T03:52:18;7.83;;;7.13;;
69213;SDS011;56325;47.030;18.518;2022-09-12T03:54:53;7.73;;;6.87;;
69213;SDS011;56325;47.030;18.518;2022-09-12T03:57:28;7.47;;;6.77;;
69213;SDS011;56325;47.030;18.518;2022-09-12T04:00:02;8.60;;;7.10;;
69213;SDS011;56325;47.030;18.518;2022-09-12T04:02:43;7.03;;;6.53;;
69213;SDS011;56325;47.030;18.518;2022-09-12T04:05:17;11.63;;;7.53;;
69213;SDS011;56325;47.030;18.518;2022-09-12T04:07:52;8.10;;;7.33;;
69213;SDS011;56325;47.030;18.518;2022-09-12T04:10:27;8.10;;;7.30;;
69213;SDS011;56325;47.030;18.518;2022-09-12T04:13:01;9.87;;;7.40;;
69213;SDS011;56325;47.030;18.518;2022-09-12T04:15:36;7.47;;;6.77;;
69213;SDS011;56325;47.030;18.518;2022-09-12T04:18:10;7.70;;;7.00;;
69213;SDS011;56325;47.030;18.518;2022-09-12T04:20:44;7.37;;;6.77;;
69213;SDS011;56325;47.030;18.518;2022-09-12T04:23:18;7.87;;;7.13;;
69213;SDS011;56325;47.030;18.518;2022-09-12T04:25:54;7.50;;;6.90;;
69213;SDS011;56325;47.030;18.518;2022-09-12T04:28:29;7.60;;;6.77;;
69213;SDS011;56325;47.030;18.518;2022-09-12T04:31:05;8.07;;;7.23;;
69213;SDS011;56325;47.030;18.518;2022-09-12T04:33:40;9.37;;;7.07;;
69213;SDS011;56325;47.030;18.518;2022-09-12T04:36:15;7.97;;;7.23;;
69213;SDS011;56325;47.030;18.518;2022-09-12T04:38:50;7.47;;;6.80;;
69213;SDS011;56325;47.030;18.518;2022-09-12T04:41:27;7.30;;;6.70;;
69213;SDS011;56325;47.030;18.518;2022-09-12T04:44:03;7.50;;;6.80;;
69213;SDS011;56325;47.030;18.518;2022-09-12T04:46:40;12.40;;;7.27;;
69213;SDS011;56325;47.030;18.518;2022-09-12T04:49:16;7.13;;;6.53;;
69213;SDS011;56325;47.030;18.518;2022-09-12T04:51:51;6.77;;;6.37;;
69213;SDS011;56325;47.030;18.518;2022-09-12T04:54:26;7.90;;;6.83;;
69213;SDS011;56325;47.030;18.518;2022-09-12T04:57:02;6.57;;;6.17;;
69213;SDS011;56325;47.030;18.518;2022-09-12T04:59:36;8.63;;;6.30;;
69213;SDS011;56325;47.030;18.518;2022-09-12T05:02:11;9.93;;;7.43;;
69213;SDS011;56325;47.030;18.518;2022-09-12T05:04:45;7.20;;;6.70;;
69213;SDS011;56325;47.030;18.518;2022-09-12T05:07:20;7.30;;;6.67;;
69213;SDS011;56325;47.030;18.518;2022-09-12T05:09:54;9.23;;;6.57;;
69213;SDS011;56325;47.030;18.518;2022-09-12T05:12:30;7.27;;;6.67;;
69213;SDS011;56325;47.030;18.518;2022-09-12T05:15:05;5.77;;;5.17;;
69213;SDS011;56325;47.030;18.518;2022-09-12T05:17:40;5.30;;;4.83;;
69213;SDS011;56325;47.030;18.518;2022-09-12T05:20:14;5.43;;;5.03;;
69213;SDS011;56325;47.030;18.518;2022-09-12T05:22:49;5.07;;;4.68;;
69213;SDS011;56325;47.030;18.518;2022-09-12T05:25:23;4.50;;;4.20;;
69213;SDS011;56325;47.030;18.518;2022-09-12T05:27:59;4.32;;;4.10;;
69213;SDS011;56325;47.030;18.518;2022-09-12T05:30:33;4.50;;;4.30;;
69213;SDS011;56325;47.030;18.518;2022-09-12T05:33:07;5.50;;;5.00;;
69213;SDS011;56325;47.030;18.518;2022-09-12T05:35:41;7.10;;;5.28;;
69213;SDS011;56325;47.030;18.518;2022-09-12T05:38:24;5.68;;;5.07;;
69213;SDS011;56325;47.030;18.518;2022-09-12T05:41:03;6.35;;;5.80;;
69213;SDS011;56325;47.030;18.518;2022-09-12T05:43:41;5.80;;;5.32;;
69213;SDS011;56325;47.030;18.518;2022-09-12T05:46:17;6.35;;;5.35;;
69213;SDS011;56325;47.030;18.518;2022-09-12T05:48:53;6.03;;;5.62;;
69213;SDS011;56325;47.030;18.518;2022-09-12T05:51:31;5.97;;;5.55;;
69213;SDS011;56325;47.030;18.518;2022-09-12T05:54:08;6.43;;;5.82;;
69213;SDS011;56325;47.030;18.518;2022-09-12T05:56:44;5.35;;;5.05;;
69213;SDS011;56325;47.030;18.518;2022-09-12T05:59:20;5.90;;;5.50;;
69213;SDS011;56325;47.030;18.518;2022-09-12T06:01:55;5.68;;;5.20;;
69213;SDS011;56325;47.030;18.518;2022-09-12T06:04:30;7.87;;;5.35;;
69213;SDS011;56325;47.030;18.518;2022-09-12T06:07:04;5.87;;;5.40;;
69213;SDS011;56325;47.030;18.518;2022-09-12T06:09:38;5.50;;;5.10;;
69213;SDS011;56325;47.030;18.518;2022-09-12T06:12:13;5.32;;;5.00;;
69213;SDS011;56325;47.030;18.518;2022-09-12T06:14:48;6.53;;;6.12;;
69213;SDS011;56325;47.030;18.518;2022-09-12T06:17:22;5.95;;;5.45;;
69213;SDS011;56325;47.030;18.518;2022-09-12T06:19:57;6.22;;;4.70;;
69213;SDS011;56325;47.030;18.518;2022-09-12T06:22:31;5.37;;;5.07;;
69213;SDS011;56325;47.030;18.518;2022-09-12T06:25:06;5.32;;;4.70;;
69213;SDS011;56325;47.030;18.518;2022-09-12T06:27:41;5.93;;;5.53;;
69213;SDS011;56325;47.030;18.518;2022-09-12T06:30:17;5.15;;;4.85;;
69213;SDS011;56325;47.030;18.518;2022-09-12T06:32:56;5.10;;;4.80;;
69213;SDS011;56325;47.030;18.518;2022-09-12T06:35:34;5.05;;;4.62;;
69213;SDS011;56325;47.030;18.518;2022-09-12T06:38:08;8.15;;;5.00;;
69213;SDS011;56325;47.030;18.518;2022-09-12T06:40:43;6.45;;;5.10;;
69213;SDS011;56325;47.030;18.518;2022-09-12T06:43:17;4.95;;;4.55;;
69213;SDS011;56325;47.030;18.518;2022-09-12T06:45:53;5.68;;;4.97;;
69213;SDS011;56325;47.030;18.518;2022-09-12T06:48:28;4.85;;;4.65;;
69213;SDS011;56325;47.030;18.518;2022-09-12T06:51:03;4.50;;;4.10;;
69213;SDS011;56325;47.030;18.518;2022-09-12T06:53:38;5.57;;;5.12;;
69213;SDS011;56325;47.030;18.518;2022-09-12T06:56:14;4.97;;;4.68;;
69213;SDS011;56325;47.030;18.518;2022-09-12T06:58:50;4.62;;;4.32;;
69213;SDS011;56325;47.030;18.518;2022-09-12T07:01:28;5.05;;;4.65;;
69213;SDS011;56325;47.030;18.518;2022-09-12T07:04:03;4.40;;;4.20;;
69213;SDS011;56325;47.030;18.518;2022-09-12T07:06:39;6.28;;;4.15;;
69213;SDS011;56325;47.030;18.518;2022-09-12T07:09:16;4.20;;;3.90;;
69213;SDS011;56325;47.030;18.518;2022-09-12T07:11:50;4.32;;;4.00;;
69213;SDS011;56325;47.030;18.518;2022-09-12T07:14:24;4.25;;;3.83;;
69213;SDS011;56325;47.030;18.518;2022-09-12T07:17:00;3.95;;;3.85;;
69213;SDS011;56325;47.030;18.518;2022-09-12T07:19:34;4.25;;;3.40;;
69213;SDS011;56325;47.030;18.518;2022-09-12T07:22:09;4.05;;;3.75;;
69213;SDS011;56325;47.030;18.518;2022-09-12T07:24:43;3.40;;;3.17;;
69213;SDS011;56325;47.030;18.518;2022-09-12T07:27:19;3.35;;;3.08;;
69213;SDS011;56325;47.030;18.518;2022-09-12T07:29:54;5.07;;;3.37;;
69213;SDS011;56325;47.030;18.518;2022-09-12T07:32:30;3.42;;;3.10;;
69213;SDS011;56325;47.030;18.518;2022-09-12T07:35:04;3.15;;;2.95;;
69213;SDS011;56325;47.030;18.518;2022-09-12T07:37:39;3.15;;;2.95;;
69213;SDS011;56325;47.030;18.518;2022-09-12T07:40:13;4.18;;;3.28;;
69213;SDS011;56325;47.030;18.518;2022-09-12T07:42:48;3.33;;;3.12;;
69213;SDS011;56325;47.030;18.518;2022-09-12T07:45:22;3.12;;;2.92;;
69213;SDS011;56325;47.030;18.518;2022-09-12T07:48:00;3.17;;;2.90;;
69213;SDS011;56325;47.030;18.518;2022-09-12T07:50:34;2.70;;;2.60;;
69213;SDS011;56325;47.030;18.518;2022-09-12T07:53:13;2.90;;;2.72;;
69213;SDS011;56325;47.030;18.518;2022-09-12T07:55:51;2.90;;;2.80;;
69213;SDS011;56325;47.030;18.518;2022-09-12T07:58:26;2.90;;;2.58;;
69213;SDS011;56325;47.030;18.518;2022-09-12T08:01:01;2.72;;;2.62;;
69213;SDS011;56325;47.030;18.518;2022-09-12T08:03:38;2.78;;;2.58;;
69213;SDS011;56325;47.030;18.518;2022-09-12T08:06:13;2.53;;;2.42;;
69213;SDS011;56325;47.030;18.518;2022-09-12T08:08:48;4.57;;;2.60;;
69213;SDS011;56325;47.030;18.518;2022-09-12T08:11:24;4.35;;;2.58;;
69213;SDS011;56325;47.030;18.518;2022-09-12T08:14:00;2.20;;;2.10;;
69213;SDS011;56325;47.030;18.518;2022-09-12T08:16:37;4.10;;;2.60;;
69213;SDS011;56325;47.030;18.518;2022-09-12T08:19:12;2.20;;;2.20;;
69213;SDS011;56325;47.030;18.518;2022-09-12T08:21:47;2.40;;;2.28;;
69213;SDS011;56325;47.030;18.518;2022-09-12T08:24:21;2.42;;;2.33;;
69213;SDS011;56325;47.030;18.518;2022-09-12T08:26:56;2.20;;;2.00;;
69213;SDS011;56325;47.030;18.518;2022-09-12T08:29:30;2.45;;;2.33;;
69213;SDS011;56325;47.030;18.518;2022-09-12T08:32:04;2.30;;;2.20;;
69213;SDS011;56325;47.030;18.518;2022-09-12T08:34:40;2.50;;;2.40;;
69213;SDS011;56325;47.030;18.518;2022-09-12T08:37:14;1.85;;;1.85;;
69213;SDS011;56325;47.030;18.518;2022-09-12T08:39:49;2.05;;;1.95;;
69213;SDS011;56325;47.030;18.518;2022-09-12T08:42:27;3.65;;;2.12;;
69213;SDS011;56325;47.030;18.518;2022-09-12T08:45:14;2.00;;;1.90;;
69213;SDS011;56325;47.030;18.518;2022-09-12T08:47:52;1.92;;;1.83;;
69213;SDS011;56325;47.030;18.518;2022-09-12T08:50:30;2.55;;;1.80;;
69213;SDS011;56325;47.030;18.518;2022-09-12T08:53:05;2.20;;;2.10;;
69213;SDS011;56325;47.030;18.518;2022-09-12T08:55:49;2.42;;;2.12;;
69213;SDS011;56325;47.030;18.518;2022-09-12T09:22:24;2.08;;;1.90;;
69213;SDS011;56325;47.030;18.518;2022-09-12T09:25:05;1.85;;;1.75;;
69213;SDS011;56325;47.030;18.518;2022-09-12T09:27:46;1.65;;;1.55;;
69213;SDS011;56325;47.030;18.518;2022-09-12T09:30:24;3.65;;;1.90;;
69213;SDS011;56325;47.030;18.518;2022-09-12T09:33:00;1.75;;;1.75;;
69213;SDS011;56325;47.030;18.518;2022-09-12T09:35:39;2.70;;;1.73;;
69213;SDS011;56325;47.030;18.518;2022-09-12T09:38:22;4.03;;;1.50;;
69213;SDS011;56325;47.030;18.518;2022-09-12T09:41:06;1.70;;;1.60;;
69213;SDS011;56325;47.030;18.518;2022-09-12T09:43:52;1.30;;;1.30;;
69213;SDS011;56325;47.030;18.518;2022-09-12T09:46:33;4.35;;;1.60;;
69213;SDS011;56325;47.030;18.518;2022-09-12T09:49:08;2.72;;;1.55;;
69213;SDS011;56325;47.030;18.518;2022-09-12T09:51:46;1.60;;;1.50;;
69213;SDS011;56325;47.030;18.518;2022-09-12T09:54:22;1.58;;;1.37;;
69213;SDS011;56325;47.030;18.518;2022-09-12T09:56:59;1.70;;;1.60;;
69213;SDS011;56325;47.030;18.518;2022-09-12T09:59:36;1.92;;;1.52;;
69213;SDS011;56325;47.030;18.518;2022-09-12T10:02:18;1.83;;;1.40;;
69213;SDS011;56325;47.030;18.518;2022-09-12T10:04:56;4.90;;;1.70;;
69213;SDS011;56325;47.030;18.518;2022-09-12T10:07:31;4.82;;;1.80;;
69213;SDS011;56325;47.030;18.518;2022-09-12T10:10:14;1.50;;;1.50;;
69213;SDS011;56325;47.030;18.518;2022-09-12T10:12:49;1.70;;;1.70;;
69213;SDS011;56325;47.030;18.518;2022-09-12T10:15:25;1.77;;;1.67;;
69213;SDS011;56325;47.030;18.518;2022-09-12T10:17:59;1.73;;;1.62;;
69213;SDS011;56325;47.030;18.518;2022-09-12T10:20:35;1.77;;;1.77;;
69213;SDS011;56325;47.030;18.518;2022-09-12T10:23:19;3.08;;;1.62;;
69213;SDS011;56325;47.030;18.518;2022-09-12T10:26:07;6.87;;;1.67;;
69213;SDS011;56325;47.030;18.518;2022-09-12T10:28:44;2.28;;;1.75;;
69213;SDS011;56325;47.030;18.518;2022-09-12T10:31:22;3.50;;;1.62;;
69213;SDS011;56325;47.030;18.518;2022-09-12T10:34:00;2.30;;;2.10;;
69213;SDS011;56325;47.030;18.518;2022-09-12T10:36:37;1.98;;;1.70;;
69213;SDS011;56325;47.030;18.518;2022-09-12T10:39:15;2.35;;;1.48;;
69213;SDS011;56325;47.030;18.518;2022-09-12T10:41:52;1.75;;;1.67;;
69213;SDS011;56325;47.030;18.518;2022-09-12T10:44:27;3.53;;;1.85;;
69213;SDS011;56325;47.030;18.518;2022-09-12T10:49:53;1.48;;;1.37;;
69213;SDS011;56325;47.030;18.518;2022-09-12T10:52:57;2.75;;;1.73;;
69213;SDS011;56325;47.030;18.518;2022-09-12T10:58:45;2.00;;;1.90;;
69213;SDS011;56325;47.030;18.518;2022-09-12T11:01:43;1.52;;;1.52;;
69213;SDS011;56325;47.030;18.518;2022-09-12T11:04:33;1.40;;;1.40;;
69213;SDS011;56325;47.030;18.518;2022-09-12T11:07:26;5.62;;;2.00;;
69213;SDS011;56325;47.030;18.518;2022-09-12T11:10:14;1.70;;;1.60;;
69213;SDS011;56325;47.030;18.518;2022-09-12T11:13:16;1.52;;;1.48;;
69213;SDS011;56325;47.030;18.518;2022-09-12T11:16:04;1.75;;;1.52;;
69213;SDS011;56325;47.030;18.518;2022-09-12T11:18:51;1.70;;;1.60;;
69213;SDS011;56325;47.030;18.518;2022-09-12T11:21:41;1.60;;;1.60;;
69213;SDS011;56325;47.030;18.518;2022-09-12T11:24:28;1.65;;;1.55;;
69213;SDS011;56325;47.030;18.518;2022-09-12T11:27:17;1.87;;;1.77;;
69213;SDS011;56325;47.030;18.518;2022-09-12T11:32:48;6.22;;;1.52;;
69213;SDS011;56325;47.030;18.518;2022-09-12T11:35:44;5.95;;;1.90;;
69213;SDS011;56325;47.030;18.518;2022-09-12T11:38:40;1.80;;;1.80;;
69213;SDS011;56325;47.030;18.518;2022-09-12T11:41:24;3.80;;;1.60;;
69213;SDS011;56325;47.030;18.518;2022-09-12T11:44:09;1.62;;;1.62;;
69213;SDS011;56325;47.030;18.518;2022-09-12T11:46:49;1.80;;;1.80;;
69213;SDS011;56325;47.030;18.518;2022-09-12T11:49:27;2.03;;;1.80;;
69213;SDS011;56325;47.030;18.518;2022-09-12T11:52:10;1.80;;;1.80;;
69213;SDS011;56325;47.030;18.518;2022-09-12T11:54:48;2.05;;;1.95;;
69213;SDS011;56325;47.030;18.518;2022-09-12T11:57:30;2.55;;;1.67;;
69213;SDS011;56325;47.030;18.518;2022-09-12T12:00:14;2.65;;;1.75;;
69213;SDS011;56325;47.030;18.518;2022-09-12T12:02:54;1.77;;;1.70;;
69213;SDS011;56325;47.030;18.518;2022-09-12T12:05:41;1.90;;;1.80;;
69213;SDS011;56325;47.030;18.518;2022-09-12T12:08:23;1.80;;;1.70;;
69213;SDS011;56325;47.030;18.518;2022-09-12T12:10:59;1.48;;;1.37;;
69213;SDS011;56325;47.030;18.518;2022-09-12T12:13:35;1.83;;;1.73;;
69213;SDS011;56325;47.030;18.518;2022-09-12T12:16:13;3.83;;;1.60;;
69213;SDS011;56325;47.030;18.518;2022-09-12T12:18:53;1.80;;;1.70;;
69213;SDS011;56325;47.030;18.518;2022-09-12T12:21:34;1.98;;;1.40;;
69213;SDS011;56325;47.030;18.518;2022-09-12T12:24:13;1.55;;;1.50;;
69213;SDS011;56325;47.030;18.518;2022-09-12T12:26:54;1.60;;;1.60;;
69213;SDS011;56325;47.030;18.518;2022-09-12T12:29:37;1.62;;;1.62;;
69213;SDS011;56325;47.030;18.518;2022-09-12T12:32:22;2.28;;;1.45;;
69213;SDS011;56325;47.030;18.518;2022-09-12T12:35:01;1.70;;;1.50;;
69213;SDS011;56325;47.030;18.518;2022-09-12T12:38:26;1.83;;;1.73;;
69213;SDS011;56325;47.030;18.518;2022-09-12T12:47:21;1.70;;;1.70;;
69213;SDS011;56325;47.030;18.518;2022-09-12T12:49:59;1.50;;;1.40;;
69213;SDS011;56325;47.030;18.518;2022-09-12T12:52:42;2.33;;;1.70;;
69213;SDS011;56325;47.030;18.518;2022-09-12T12:55:23;1.85;;;1.75;;
69213;SDS011;56325;47.030;18.518;2022-09-12T12:58:01;2.15;;;1.95;;
69213;SDS011;56325;47.030;18.518;2022-09-12T13:00:36;2.12;;;1.80;;
69213;SDS011;56325;47.030;18.518;2022-09-12T13:03:18;5.60;;;1.70;;
69213;SDS011;56325;47.030;18.518;2022-09-12T13:06:02;1.83;;;1.73;;
69213;SDS011;56325;47.030;18.518;2022-09-12T13:08:40;4.45;;;1.80;;
69213;SDS011;56325;47.030;18.518;2022-09-12T13:11:27;1.73;;;1.73;;
69213;SDS011;56325;47.030;18.518;2022-09-12T13:14:05;1.73;;;1.60;;
69213;SDS011;56325;47.030;18.518;2022-09-12T13:16:50;2.83;;;1.67;;
69213;SDS011;56325;47.030;18.518;2022-09-12T13:19:28;1.50;;;1.50;;
69213;SDS011;56325;47.030;18.518;2022-09-12T13:22:04;1.77;;;1.42;;
69213;SDS011;56325;47.030;18.518;2022-09-12T13:24:44;3.10;;;1.62;;
69213;SDS011;56325;47.030;18.518;2022-09-12T13:27:22;2.45;;;1.30;;
69213;SDS011;56325;47.030;18.518;2022-09-12T13:30:04;1.40;;;1.40;;
69213;SDS011;56325;47.030;18.518;2022-09-12T13:32:40;1.45;;;1.40;;
69213;SDS011;56325;47.030;18.518;2022-09-12T13:35:19;4.45;;;1.55;;
69213;SDS011;56325;47.030;18.518;2022-09-12T13:38:00;5.18;;;1.40;;
69213;SDS011;56325;47.030;18.518;2022-09-12T13:40:44;1.73;;;1.40;;
69213;SDS011;56325;47.030;18.518;2022-09-12T13:43:36;3.83;;;1.55;;
69213;SDS011;56325;47.030;18.518;2022-09-12T13:46:14;7.28;;;1.80;;
69213;SDS011;56325;47.030;18.518;2022-09-12T13:48:56;1.85;;;1.52;;
69213;SDS011;56325;47.030;18.518;2022-09-12T13:51:32;1.65;;;1.60;;
69213;SDS011;56325;47.030;18.518;2022-09-12T13:54:07;2.00;;;1.95;;
69213;SDS011;56325;47.030;18.518;2022-09-12T13:56:55;1.80;;;1.60;;
69213;SDS011;56325;47.030;18.518;2022-09-12T13:59:38;1.40;;;1.40;;
69213;SDS011;56325;47.030;18.518;2022-09-12T14:02:16;1.70;;;1.70;;
69213;SDS011;56325;47.030;18.518;2022-09-12T14:04:52;1.70;;;1.60;;
69213;SDS011;56325;47.030;18.518;2022-09-12T14:07:44;1.67;;;1.58;;
69213;SDS011;56325;47.030;18.518;2022-09-12T14:10:27;1.50;;;1.40;;
69213;SDS011;56325;47.030;18.518;2022-09-12T14:13:03;1.30;;;1.27;;
69213;SDS011;56325;47.030;18.518;2022-09-12T14:15:46;4.62;;;1.48;;
69213;SDS011;56325;47.030;18.518;2022-09-12T14:18:22;4.28;;;1.23;;
69213;SDS011;56325;47.030;18.518;2022-09-12T14:21:00;1.30;;;1.30;;
69213;SDS011;56325;47.030;18.518;2022-09-12T14:23:42;6.37;;;1.40;;
69213;SDS011;56325;47.030;18.518;2022-09-12T14:26:19;1.65;;;1.55;;
69213;SDS011;56325;47.030;18.518;2022-09-12T14:28:54;39.03;;;2.10;;
69213;SDS011;56325;47.030;18.518;2022-09-12T14:31:31;1.17;;;1.17;;
69213;SDS011;56325;47.030;18.518;2022-09-12T14:34:08;7.85;;;1.50;;
69213;SDS011;56325;47.030;18.518;2022-09-12T14:36:44;1.23;;;1.23;;
69213;SDS011;56325;47.030;18.518;2022-09-12T14:39:22;6.25;;;2.00;;
69213;SDS011;56325;47.030;18.518;2022-09-12T14:42:03;1.20;;;1.20;;
69213;SDS011;56325;47.030;18.518;2022-09-12T14:44:38;1.30;;;1.20;;
69213;SDS011;56325;47.030;18.518;2022-09-12T14:47:19;1.25;;;1.25;;
69213;SDS011;56325;47.030;18.518;2022-09-12T14:49:56;2.05;;;1.35;;
69213;SDS011;56325;47.030;18.518;2022-09-12T14:52:32;1.67;;;1.58;;
69213;SDS011;56325;47.030;18.518;2022-09-12T14:55:18;1.33;;;1.33;;
69213;SDS011;56325;47.030;18.518;2022-09-12T15:00:59;1.77;;;1.60;;
69213;SDS011;56325;47.030;18.518;2022-09-12T15:03:46;1.33;;;1.30;;
69213;SDS011;56325;47.030;18.518;2022-09-12T15:06:27;1.50;;;1.50;;
69213;SDS011;56325;47.030;18.518;2022-09-12T15:09:04;1.42;;;1.42;;
69213;SDS011;56325;47.030;18.518;2022-09-12T15:11:41;1.30;;;1.30;;
69213;SDS011;56325;47.030;18.518;2022-09-12T15:14:15;7.10;;;1.45;;
69213;SDS011;56325;47.030;18.518;2022-09-12T15:16:49;2.25;;;1.42;;
69213;SDS011;56325;47.030;18.518;2022-09-12T15:19:25;7.62;;;1.77;;
69213;SDS011;56325;47.030;18.518;2022-09-12T15:22:00;2.12;;;1.52;;
69213;SDS011;56325;47.030;18.518;2022-09-12T15:24:34;2.15;;;1.52;;
69213;SDS011;56325;47.030;18.518;2022-09-12T15:27:11;4.00;;;1.40;;
69213;SDS011;56325;47.030;18.518;2022-09-12T15:29:45;2.10;;;2.00;;
69213;SDS011;56325;47.030;18.518;2022-09-12T15:32:21;5.80;;;1.60;;
69213;SDS011;56325;47.030;18.518;2022-09-12T15:34:58;7.37;;;1.35;;
69213;SDS011;56325;47.030;18.518;2022-09-12T15:37:32;1.77;;;1.67;;
69213;SDS011;56325;47.030;18.518;2022-09-12T15:40:07;5.05;;;1.60;;
69213;SDS011;56325;47.030;18.518;2022-09-12T15:42:43;3.15;;;1.75;;
69213;SDS011;56325;47.030;18.518;2022-09-12T15:45:18;1.52;;;1.42;;
69213;SDS011;56325;47.030;18.518;2022-09-12T15:47:55;1.48;;;1.42;;
69213;SDS011;56325;47.030;18.518;2022-09-12T15:50:31;5.40;;;1.62;;
69213;SDS011;56325;47.030;18.518;2022-09-12T15:53:05;3.15;;;1.40;;
69213;SDS011;56325;47.030;18.518;2022-09-12T15:55:43;2.12;;;1.55;;
69213;SDS011;56325;47.030;18.518;2022-09-12T15:58:17;1.62;;;1.52;;
69213;SDS011;56325;47.030;18.518;2022-09-12T16:00:51;1.75;;;1.65;;
69213;SDS011;56325;47.030;18.518;2022-09-12T16:03:26;3.20;;;1.67;;
69213;SDS011;56325;47.030;18.518;2022-09-12T16:06:03;1.62;;;1.52;;
69213;SDS011;56325;47.030;18.518;2022-09-12T16:08:40;2.92;;;1.42;;
69213;SDS011;56325;47.030;18.518;2022-09-12T16:11:16;3.92;;;1.70;;
69213;SDS011;56325;47.030;18.518;2022-09-12T16:13:53;1.70;;;1.70;;
69213;SDS011;56325;47.030;18.518;2022-09-12T16:16:28;2.65;;;1.60;;
69213;SDS011;56325;47.030;18.518;2022-09-12T16:19:02;8.75;;;1.60;;
69213;SDS011;56325;47.030;18.518;2022-09-12T16:21:38;1.40;;;1.40;;